sensor_id;sensor_type;location;lat;lon;timestamp;P1;durP1;ratioP1;P2;durP2;ratioP2
53287;SDS011;39172;45.550;12.072;2023-08-12T00:04:15;2.17;;;1.55;;
53287;SDS011;39172;45.550;12.072;2023-08-12T00:10:17;1.50;;;1.30;;
53287;SDS011;39172;45.550;12.072;2023-08-12T00:16:18;1.55;;;1.20;;
53287;SDS011;39172;45.550;12.072;2023-08-12T00:22:19;1.80;;;1.48;;
53287;SDS011;39172;45.550;12.072;2023-08-12T00:28:20;2.05;;;1.48;;
53287;SDS011;39172;45.550;12.072;2023-08-12T00:34:21;1.63;;;1.30;;
53287;SDS011;39172;45.550;12.072;2023-08-12T00:40:22;2.33;;;1.65;;
53287;SDS011;39172;45.550;12.072;2023-08-12T00:46:23;2.03;;;1.77;;
53287;SDS011;39172;45.550;12.072;2023-08-12T00:52:25;2.05;;;1.50;;
53287;SDS011;39172;45.550;12.072;2023-08-12T00:58:26;2.10;;;1.60;;
53287;SDS011;39172;45.550;12.072;2023-08-12T01:04:27;2.33;;;1.83;;
53287;SDS011;39172;45.550;12.072;2023-08-12T01:10:29;2.60;;;1.90;;
53287;SDS011;39172;45.550;12.072;2023-08-12T01:16:32;2.38;;;1.70;;
53287;SDS011;39172;45.550;12.072;2023-08-12T01:22:37;2.03;;;1.65;;
53287;SDS011;39172;45.550;12.072;2023-08-12T01:28:40;1.73;;;1.50;;
53287;SDS011;39172;45.550;12.072;2023-08-12T01:34:44;1.80;;;1.60;;
53287;SDS011;39172;45.550;12.072;2023-08-12T01:40:48;2.15;;;1.80;;
53287;SDS011;39172;45.550;12.072;2023-08-12T01:46:49;1.60;;;1.30;;
53287;SDS011;39172;45.550;12.072;2023-08-12T01:52:52;1.45;;;1.20;;
53287;SDS011;39172;45.550;12.072;2023-08-12T01:58:53;1.40;;;1.30;;
53287;SDS011;39172;45.550;12.072;2023-08-12T02:04:54;1.35;;;1.17;;
53287;SDS011;39172;45.550;12.072;2023-08-12T02:10:55;1.83;;;1.20;;
53287;SDS011;39172;45.550;12.072;2023-08-12T02:16:56;1.40;;;1.20;;
53287;SDS011;39172;45.550;12.072;2023-08-12T02:22:57;2.08;;;1.80;;
53287;SDS011;39172;45.550;12.072;2023-08-12T02:28:58;1.90;;;1.60;;
53287;SDS011;39172;45.550;12.072;2023-08-12T02:34:59;2.63;;;2.10;;
53287;SDS011;39172;45.550;12.072;2023-08-12T02:41:00;1.95;;;1.75;;
53287;SDS011;39172;45.550;12.072;2023-08-12T02:47:03;1.98;;;1.55;;
53287;SDS011;39172;45.550;12.072;2023-08-12T02:53:05;1.83;;;1.50;;
53287;SDS011;39172;45.550;12.072;2023-08-12T02:59:06;2.15;;;1.88;;
53287;SDS011;39172;45.550;12.072;2023-08-12T03:05:07;1.40;;;1.15;;
53287;SDS011;39172;45.550;12.072;2023-08-12T03:11:08;1.90;;;1.40;;
53287;SDS011;39172;45.550;12.072;2023-08-12T03:17:09;1.95;;;1.55;;
53287;SDS011;39172;45.550;12.072;2023-08-12T03:23:11;1.85;;;1.58;;
53287;SDS011;39172;45.550;12.072;2023-08-12T03:29:14;1.50;;;1.40;;
53287;SDS011;39172;45.550;12.072;2023-08-12T03:35:17;2.08;;;1.30;;
53287;SDS011;39172;45.550;12.072;2023-08-12T03:41:19;1.88;;;1.67;;
53287;SDS011;39172;45.550;12.072;2023-08-12T03:47:20;2.08;;;1.70;;
53287;SDS011;39172;45.550;12.072;2023-08-12T03:53:23;2.28;;;1.88;;
53287;SDS011;39172;45.550;12.072;2023-08-12T03:59:27;2.58;;;2.20;;
53287;SDS011;39172;45.550;12.072;2023-08-12T04:05:29;2.70;;;2.10;;
53287;SDS011;39172;45.550;12.072;2023-08-12T04:11:31;2.30;;;1.85;;
53287;SDS011;39172;45.550;12.072;2023-08-12T04:17:32;2.42;;;1.83;;
53287;SDS011;39172;45.550;12.072;2023-08-12T04:23:33;2.08;;;1.60;;
53287;SDS011;39172;45.550;12.072;2023-08-12T04:29:34;1.98;;;1.60;;
53287;SDS011;39172;45.550;12.072;2023-08-12T04:35:35;1.67;;;1.40;;
53287;SDS011;39172;45.550;12.072;2023-08-12T04:41:37;2.03;;;1.55;;
53287;SDS011;39172;45.550;12.072;2023-08-12T04:47:40;2.08;;;1.65;;
53287;SDS011;39172;45.550;12.072;2023-08-12T04:53:41;1.52;;;1.38;;
53287;SDS011;39172;45.550;12.072;2023-08-12T04:59:42;2.47;;;2.00;;
53287;SDS011;39172;45.550;12.072;2023-08-12T05:05:47;2.92;;;2.40;;
53287;SDS011;39172;45.550;12.072;2023-08-12T05:11:49;3.28;;;2.60;;
53287;SDS011;39172;45.550;12.072;2023-08-12T05:17:50;3.30;;;2.72;;
53287;SDS011;39172;45.550;12.072;2023-08-12T05:23:54;3.13;;;2.70;;
53287;SDS011;39172;45.550;12.072;2023-08-12T05:29:55;3.88;;;2.53;;
53287;SDS011;39172;45.550;12.072;2023-08-12T05:35:58;3.20;;;2.50;;
53287;SDS011;39172;45.550;12.072;2023-08-12T05:41:58;4.82;;;2.75;;
53287;SDS011;39172;45.550;12.072;2023-08-12T05:47:59;4.47;;;2.90;;
53287;SDS011;39172;45.550;12.072;2023-08-12T05:54:00;3.58;;;2.70;;
53287;SDS011;39172;45.550;12.072;2023-08-12T06:00:01;3.67;;;2.55;;
53287;SDS011;39172;45.550;12.072;2023-08-12T06:06:12;2.47;;;2.10;;
53287;SDS011;39172;45.550;12.072;2023-08-12T06:12:13;5.20;;;2.90;;
53287;SDS011;39172;45.550;12.072;2023-08-12T06:18:14;3.53;;;2.45;;
53287;SDS011;39172;45.550;12.072;2023-08-12T06:24:17;2.65;;;2.40;;
53287;SDS011;39172;45.550;12.072;2023-08-12T06:30:18;2.78;;;2.47;;
53287;SDS011;39172;45.550;12.072;2023-08-12T06:36:19;3.10;;;2.47;;
53287;SDS011;39172;45.550;12.072;2023-08-12T06:42:20;3.10;;;2.40;;
53287;SDS011;39172;45.550;12.072;2023-08-12T06:48:21;2.45;;;2.20;;
53287;SDS011;39172;45.550;12.072;2023-08-12T06:54:22;2.50;;;2.13;;
53287;SDS011;39172;45.550;12.072;2023-08-12T07:00:23;3.17;;;2.20;;
53287;SDS011;39172;45.550;12.072;2023-08-12T07:06:24;2.47;;;2.22;;
53287;SDS011;39172;45.550;12.072;2023-08-12T07:12:25;2.80;;;2.60;;
53287;SDS011;39172;45.550;12.072;2023-08-12T07:18:28;3.20;;;2.30;;
53287;SDS011;39172;45.550;12.072;2023-08-12T07:24:29;4.13;;;2.33;;
53287;SDS011;39172;45.550;12.072;2023-08-12T07:30:31;3.28;;;2.38;;
53287;SDS011;39172;45.550;12.072;2023-08-12T07:36:36;2.92;;;2.58;;
53287;SDS011;39172;45.550;12.072;2023-08-12T07:42:37;3.03;;;2.70;;
53287;SDS011;39172;45.550;12.072;2023-08-12T07:48:38;2.70;;;2.00;;
53287;SDS011;39172;45.550;12.072;2023-08-12T07:54:39;2.22;;;1.98;;
53287;SDS011;39172;45.550;12.072;2023-08-12T08:00:40;1.95;;;1.75;;
53287;SDS011;39172;45.550;12.072;2023-08-12T08:06:43;2.05;;;1.83;;
53287;SDS011;39172;45.550;12.072;2023-08-12T08:12:44;2.17;;;1.90;;
53287;SDS011;39172;45.550;12.072;2023-08-12T08:18:45;2.90;;;2.10;;
53287;SDS011;39172;45.550;12.072;2023-08-12T08:24:46;2.40;;;2.10;;
53287;SDS011;39172;45.550;12.072;2023-08-12T08:30:48;3.17;;;2.47;;
53287;SDS011;39172;45.550;12.072;2023-08-12T08:36:49;1.95;;;1.70;;
53287;SDS011;39172;45.550;12.072;2023-08-12T08:42:51;2.00;;;1.80;;
53287;SDS011;39172;45.550;12.072;2023-08-12T08:48:53;2.00;;;1.80;;
53287;SDS011;39172;45.550;12.072;2023-08-12T08:54:55;2.35;;;2.00;;
53287;SDS011;39172;45.550;12.072;2023-08-12T09:00:56;1.90;;;1.80;;
53287;SDS011;39172;45.550;12.072;2023-08-12T09:06:57;2.10;;;1.80;;
53287;SDS011;39172;45.550;12.072;2023-08-12T09:12:59;1.88;;;1.67;;
53287;SDS011;39172;45.550;12.072;2023-08-12T09:19:00;1.80;;;1.70;;
53287;SDS011;39172;45.550;12.072;2023-08-12T09:25:01;1.70;;;1.60;;
53287;SDS011;39172;45.550;12.072;2023-08-12T09:31:05;2.95;;;2.65;;
53287;SDS011;39172;45.550;12.072;2023-08-12T09:37:06;2.38;;;1.88;;
53287;SDS011;39172;45.550;12.072;2023-08-12T09:43:07;2.67;;;1.58;;
53287;SDS011;39172;45.550;12.072;2023-08-12T09:49:08;1.90;;;1.50;;
53287;SDS011;39172;45.550;12.072;2023-08-12T09:55:09;4.43;;;1.80;;
53287;SDS011;39172;45.550;12.072;2023-08-12T10:01:11;2.20;;;1.80;;
53287;SDS011;39172;45.550;12.072;2023-08-12T10:07:14;2.00;;;1.48;;
53287;SDS011;39172;45.550;12.072;2023-08-12T10:13:16;1.98;;;1.70;;
53287;SDS011;39172;45.550;12.072;2023-08-12T10:19:18;1.65;;;1.33;;
53287;SDS011;39172;45.550;12.072;2023-08-12T10:25:21;1.40;;;1.23;;
53287;SDS011;39172;45.550;12.072;2023-08-12T10:31:28;1.70;;;1.40;;
53287;SDS011;39172;45.550;12.072;2023-08-12T10:37:31;1.70;;;1.60;;
53287;SDS011;39172;45.550;12.072;2023-08-12T10:43:48;1.70;;;1.60;;
53287;SDS011;39172;45.550;12.072;2023-08-12T10:49:49;1.60;;;1.50;;
53287;SDS011;39172;45.550;12.072;2023-08-12T10:55:50;2.13;;;1.58;;
53287;SDS011;39172;45.550;12.072;2023-08-12T11:01:52;1.70;;;1.40;;
53287;SDS011;39172;45.550;12.072;2023-08-12T11:07:57;2.53;;;1.80;;
53287;SDS011;39172;45.550;12.072;2023-08-12T11:14:11;2.90;;;1.83;;
53287;SDS011;39172;45.550;12.072;2023-08-12T11:20:12;2.33;;;1.75;;
53287;SDS011;39172;45.550;12.072;2023-08-12T11:26:14;1.70;;;1.40;;
53287;SDS011;39172;45.550;12.072;2023-08-12T11:32:15;2.13;;;1.85;;
53287;SDS011;39172;45.550;12.072;2023-08-12T11:38:17;2.50;;;2.20;;
53287;SDS011;39172;45.550;12.072;2023-08-12T11:44:22;2.97;;;2.20;;
53287;SDS011;39172;45.550;12.072;2023-08-12T11:50:24;2.20;;;1.88;;
53287;SDS011;39172;45.550;12.072;2023-08-12T11:56:25;2.40;;;2.05;;
53287;SDS011;39172;45.550;12.072;2023-08-12T12:02:26;3.95;;;2.33;;
53287;SDS011;39172;45.550;12.072;2023-08-12T12:08:30;2.28;;;2.00;;
53287;SDS011;39172;45.550;12.072;2023-08-12T12:14:31;2.30;;;1.90;;
53287;SDS011;39172;45.550;12.072;2023-08-12T12:20:36;1.95;;;1.75;;
53287;SDS011;39172;45.550;12.072;2023-08-12T12:26:37;2.38;;;1.83;;
53287;SDS011;39172;45.550;12.072;2023-08-12T12:32:38;2.17;;;1.95;;
53287;SDS011;39172;45.550;12.072;2023-08-12T12:38:39;2.78;;;1.90;;
53287;SDS011;39172;45.550;12.072;2023-08-12T12:44:40;2.13;;;1.80;;
53287;SDS011;39172;45.550;12.072;2023-08-12T12:50:41;2.38;;;1.95;;
53287;SDS011;39172;45.550;12.072;2023-08-12T12:56:42;3.10;;;2.30;;
53287;SDS011;39172;45.550;12.072;2023-08-12T13:02:43;2.95;;;2.33;;
53287;SDS011;39172;45.550;12.072;2023-08-12T13:08:44;2.13;;;1.92;;
53287;SDS011;39172;45.550;12.072;2023-08-12T13:14:44;3.05;;;2.22;;
53287;SDS011;39172;45.550;12.072;2023-08-12T13:20:45;2.63;;;2.40;;
53287;SDS011;39172;45.550;12.072;2023-08-12T13:26:46;2.17;;;1.83;;
53287;SDS011;39172;45.550;12.072;2023-08-12T13:32:47;3.78;;;2.42;;
53287;SDS011;39172;45.550;12.072;2023-08-12T13:38:48;3.88;;;2.33;;
53287;SDS011;39172;45.550;12.072;2023-08-12T13:44:49;2.47;;;2.00;;
53287;SDS011;39172;45.550;12.072;2023-08-12T13:50:50;2.58;;;2.33;;
53287;SDS011;39172;45.550;12.072;2023-08-12T13:56:53;2.50;;;2.30;;
53287;SDS011;39172;45.550;12.072;2023-08-12T14:02:54;2.00;;;1.80;;
53287;SDS011;39172;45.550;12.072;2023-08-12T14:08:54;2.67;;;2.17;;
53287;SDS011;39172;45.550;12.072;2023-08-12T14:14:55;2.22;;;2.03;;
53287;SDS011;39172;45.550;12.072;2023-08-12T14:20:56;2.53;;;2.33;;
53287;SDS011;39172;45.550;12.072;2023-08-12T14:26:57;1.85;;;1.75;;
53287;SDS011;39172;45.550;12.072;2023-08-12T14:32:58;2.15;;;1.92;;
53287;SDS011;39172;45.550;12.072;2023-08-12T14:38:59;2.50;;;1.95;;
53287;SDS011;39172;45.550;12.072;2023-08-12T14:45:01;1.90;;;1.75;;
53287;SDS011;39172;45.550;12.072;2023-08-12T14:51:02;2.65;;;2.05;;
53287;SDS011;39172;45.550;12.072;2023-08-12T14:57:03;3.05;;;2.05;;
53287;SDS011;39172;45.550;12.072;2023-08-12T15:03:04;2.75;;;2.10;;
53287;SDS011;39172;45.550;12.072;2023-08-12T15:09:06;2.20;;;1.77;;
53287;SDS011;39172;45.550;12.072;2023-08-12T15:15:09;1.92;;;1.70;;
53287;SDS011;39172;45.550;12.072;2023-08-12T15:21:12;1.90;;;1.70;;
53287;SDS011;39172;45.550;12.072;2023-08-12T15:27:13;2.55;;;1.60;;
53287;SDS011;39172;45.550;12.072;2023-08-12T15:33:14;2.45;;;1.70;;
53287;SDS011;39172;45.550;12.072;2023-08-12T15:39:16;2.42;;;2.10;;
53287;SDS011;39172;45.550;12.072;2023-08-12T15:45:17;2.40;;;2.10;;
53287;SDS011;39172;45.550;12.072;2023-08-12T15:51:18;3.75;;;2.10;;
53287;SDS011;39172;45.550;12.072;2023-08-12T15:57:19;2.17;;;1.90;;
53287;SDS011;39172;45.550;12.072;2023-08-12T16:03:20;1.80;;;1.65;;
53287;SDS011;39172;45.550;12.072;2023-08-12T16:09:24;2.50;;;1.90;;
53287;SDS011;39172;45.550;12.072;2023-08-12T16:15:27;1.98;;;1.83;;
53287;SDS011;39172;45.550;12.072;2023-08-12T16:21:29;2.47;;;2.13;;
53287;SDS011;39172;45.550;12.072;2023-08-12T16:27:30;2.25;;;2.05;;
53287;SDS011;39172;45.550;12.072;2023-08-12T16:33:31;2.10;;;1.90;;
53287;SDS011;39172;45.550;12.072;2023-08-12T16:39:32;2.40;;;2.20;;
53287;SDS011;39172;45.550;12.072;2023-08-12T16:45:33;2.20;;;1.90;;
53287;SDS011;39172;45.550;12.072;2023-08-12T16:51:36;2.55;;;2.10;;
53287;SDS011;39172;45.550;12.072;2023-08-12T16:57:37;2.20;;;2.00;;
53287;SDS011;39172;45.550;12.072;2023-08-12T17:03:39;2.45;;;2.25;;
53287;SDS011;39172;45.550;12.072;2023-08-12T17:09:42;2.22;;;2.03;;
53287;SDS011;39172;45.550;12.072;2023-08-12T17:15:43;2.60;;;1.90;;
53287;SDS011;39172;45.550;12.072;2023-08-12T17:21:44;1.88;;;1.60;;
53287;SDS011;39172;45.550;12.072;2023-08-12T17:27:45;2.05;;;1.85;;
53287;SDS011;39172;45.550;12.072;2023-08-12T17:33:46;2.33;;;2.13;;
53287;SDS011;39172;45.550;12.072;2023-08-12T17:39:47;2.40;;;2.15;;
53287;SDS011;39172;45.550;12.072;2023-08-12T17:45:48;2.22;;;2.03;;
53287;SDS011;39172;45.550;12.072;2023-08-12T17:51:49;2.55;;;2.20;;
53287;SDS011;39172;45.550;12.072;2023-08-12T17:57:50;1.92;;;1.70;;
53287;SDS011;39172;45.550;12.072;2023-08-12T18:03:51;2.65;;;2.13;;
53287;SDS011;39172;45.550;12.072;2023-08-12T18:09:52;2.13;;;1.92;;
53287;SDS011;39172;45.550;12.072;2023-08-12T18:15:53;2.28;;;2.00;;
53287;SDS011;39172;45.550;12.072;2023-08-12T18:21:55;1.85;;;1.70;;
53287;SDS011;39172;45.550;12.072;2023-08-12T18:27:57;1.85;;;1.75;;
53287;SDS011;39172;45.550;12.072;2023-08-12T18:33:58;1.90;;;1.60;;
53287;SDS011;39172;45.550;12.072;2023-08-12T18:40:00;1.80;;;1.70;;
53287;SDS011;39172;45.550;12.072;2023-08-12T18:46:01;1.98;;;1.77;;
53287;SDS011;39172;45.550;12.072;2023-08-12T18:52:03;2.10;;;1.83;;
53287;SDS011;39172;45.550;12.072;2023-08-12T18:58:04;2.30;;;1.60;;
53287;SDS011;39172;45.550;12.072;2023-08-12T19:04:06;2.92;;;2.10;;
53287;SDS011;39172;45.550;12.072;2023-08-12T19:10:07;2.28;;;2.05;;
53287;SDS011;39172;45.550;12.072;2023-08-12T19:16:08;2.33;;;1.95;;
53287;SDS011;39172;45.550;12.072;2023-08-12T19:22:09;2.65;;;2.10;;
53287;SDS011;39172;45.550;12.072;2023-08-12T19:28:10;2.40;;;2.00;;
53287;SDS011;39172;45.550;12.072;2023-08-12T19:34:11;1.90;;;1.70;;
53287;SDS011;39172;45.550;12.072;2023-08-12T19:40:14;2.60;;;2.00;;
53287;SDS011;39172;45.550;12.072;2023-08-12T19:46:15;2.58;;;2.15;;
53287;SDS011;39172;45.550;12.072;2023-08-12T19:52:27;2.00;;;1.70;;
53287;SDS011;39172;45.550;12.072;2023-08-12T19:58:28;1.50;;;1.35;;
53287;SDS011;39172;45.550;12.072;2023-08-12T20:04:29;1.48;;;1.38;;
53287;SDS011;39172;45.550;12.072;2023-08-12T20:10:30;2.00;;;1.80;;
53287;SDS011;39172;45.550;12.072;2023-08-12T20:16:33;2.05;;;1.50;;
53287;SDS011;39172;45.550;12.072;2023-08-12T20:22:34;2.30;;;1.70;;
53287;SDS011;39172;45.550;12.072;2023-08-12T20:28:35;1.77;;;1.67;;
53287;SDS011;39172;45.550;12.072;2023-08-12T20:34:38;1.90;;;1.63;;
53287;SDS011;39172;45.550;12.072;2023-08-12T20:40:39;1.55;;;1.38;;
53287;SDS011;39172;45.550;12.072;2023-08-12T20:46:41;1.92;;;1.50;;
53287;SDS011;39172;45.550;12.072;2023-08-12T20:52:42;1.58;;;1.48;;
53287;SDS011;39172;45.550;12.072;2023-08-12T20:58:43;1.90;;;1.75;;
53287;SDS011;39172;45.550;12.072;2023-08-12T21:04:44;2.65;;;1.77;;
53287;SDS011;39172;45.550;12.072;2023-08-12T21:10:51;1.80;;;1.65;;
53287;SDS011;39172;45.550;12.072;2023-08-12T21:16:52;1.67;;;1.57;;
53287;SDS011;39172;45.550;12.072;2023-08-12T21:22:53;1.70;;;1.52;;
53287;SDS011;39172;45.550;12.072;2023-08-12T21:28:54;2.05;;;1.67;;
53287;SDS011;39172;45.550;12.072;2023-08-12T21:34:55;1.90;;;1.70;;
53287;SDS011;39172;45.550;12.072;2023-08-12T21:40:56;1.30;;;1.10;;
53287;SDS011;39172;45.550;12.072;2023-08-12T21:46:57;2.38;;;1.90;;
53287;SDS011;39172;45.550;12.072;2023-08-12T21:52:58;1.40;;;1.20;;
53287;SDS011;39172;45.550;12.072;2023-08-12T21:58:59;2.25;;;2.00;;
53287;SDS011;39172;45.550;12.072;2023-08-12T22:05:00;2.50;;;1.90;;
53287;SDS011;39172;45.550;12.072;2023-08-12T22:11:01;1.88;;;1.67;;
53287;SDS011;39172;45.550;12.072;2023-08-12T22:17:03;1.35;;;1.20;;
53287;SDS011;39172;45.550;12.072;2023-08-12T22:23:04;1.33;;;1.20;;
53287;SDS011;39172;45.550;12.072;2023-08-12T22:29:05;1.40;;;1.20;;
53287;SDS011;39172;45.550;12.072;2023-08-12T22:35:07;1.30;;;1.02;;
53287;SDS011;39172;45.550;12.072;2023-08-12T22:41:08;1.20;;;0.98;;
53287;SDS011;39172;45.550;12.072;2023-08-12T22:47:11;1.25;;;1.00;;
53287;SDS011;39172;45.550;12.072;2023-08-12T22:53:12;1.88;;;1.00;;
53287;SDS011;39172;45.550;12.072;2023-08-12T22:59:13;1.30;;;1.02;;
53287;SDS011;39172;45.550;12.072;2023-08-12T23:05:14;1.38;;;1.00;;
53287;SDS011;39172;45.550;12.072;2023-08-12T23:11:15;1.30;;;1.20;;
53287;SDS011;39172;45.550;12.072;2023-08-12T23:17:16;1.10;;;1.00;;
53287;SDS011;39172;45.550;12.072;2023-08-12T23:23:17;1.08;;;0.95;;
53287;SDS011;39172;45.550;12.072;2023-08-12T23:29:18;1.00;;;0.85;;
53287;SDS011;39172;45.550;12.072;2023-08-12T23:35:19;1.30;;;0.90;;
53287;SDS011;39172;45.550;12.072;2023-08-12T23:41:20;1.33;;;1.23;;
53287;SDS011;39172;45.550;12.072;2023-08-12T23:47:21;2.50;;;1.95;;
53287;SDS011;39172;45.550;12.072;2023-08-12T23:53:22;1.40;;;1.27;;
53287;SDS011;39172;45.550;12.072;2023-08-12T23:59:23;1.30;;;1.17;;
